createdAt,value
2018-04-25T00:01:27.448Z,25.27
2018-04-25T00:03:55.770Z,18.40
2018-04-25T00:06:23.305Z,18.70
2018-04-25T00:08:50.871Z,12.90
2018-04-25T00:11:18.410Z,16.07
2018-04-25T00:13:46.733Z,19.43
2018-04-25T00:16:14.286Z,17.73
2018-04-25T00:18:41.836Z,17.70
2018-04-25T00:21:09.405Z,14.45
2018-04-25T00:23:36.971Z,16.33
2018-04-25T00:26:04.530Z,18.93
2018-04-25T00:28:32.065Z,17.97
2018-04-25T00:30:59.613Z,15.53
2018-04-25T00:33:28.045Z,19.50
2018-04-25T00:35:55.616Z,17.00
2018-04-25T00:38:23.145Z,18.20
2018-04-25T00:40:50.713Z,24.23
2018-04-25T00:43:19.034Z,17.25
2018-04-25T00:45:47.444Z,14.97
2018-04-25T00:48:14.931Z,12.40
2018-04-25T00:50:42.489Z,17.70
2018-04-25T00:53:10.012Z,17.87
2018-04-25T00:55:37.578Z,14.67
2018-04-25T00:58:05.115Z,19.30
2018-04-25T01:00:33.434Z,13.37
2018-04-25T01:03:00.970Z,17.50
2018-04-25T01:05:28.511Z,16.33
2018-04-25T01:07:56.805Z,22.00
2018-04-25T01:10:24.394Z,14.60
2018-04-25T01:12:51.947Z,12.77
2018-04-25T01:15:19.483Z,16.23
2018-04-25T01:17:47.786Z,18.93
2018-04-25T01:20:15.318Z,12.93
2018-04-25T01:22:48.067Z,15.83
2018-04-25T01:25:23.197Z,15.70
2018-04-25T01:27:56.476Z,11.10
2018-04-25T01:30:24.015Z,12.90
2018-04-25T01:32:51.566Z,14.27
2018-04-25T01:35:19.108Z,11.90
2018-04-25T01:40:45.673Z,14.13
2018-04-25T01:43:13.230Z,14.07
2018-04-25T01:49:25.479Z,17.47
2018-04-25T01:52:04.917Z,12.30
2018-04-25T01:54:44.408Z,11.60
2018-04-25T01:57:23.730Z,14.13
2018-04-25T02:00:03.286Z,13.73
2018-04-25T02:02:30.333Z,10.70
2018-04-25T02:04:57.904Z,11.00
2018-04-25T02:07:26.221Z,17.33
2018-04-25T02:09:53.757Z,14.93
2018-04-25T02:12:22.065Z,10.40
2018-04-25T02:14:49.638Z,8.30
2018-04-25T02:17:17.170Z,15.13
2018-04-25T02:19:44.713Z,8.93
2018-04-25T02:22:12.284Z,12.40
2018-04-25T02:24:39.810Z,10.80
2018-04-25T02:27:08.025Z,8.50
2018-04-25T02:29:35.554Z,6.70
2018-04-25T02:32:03.870Z,10.40
2018-04-25T02:34:31.429Z,11.87
2018-04-25T02:36:58.976Z,6.73
2018-04-25T02:39:26.507Z,6.00
2018-04-25T02:41:54.827Z,10.77
2018-04-25T02:44:22.380Z,13.77
2018-04-25T02:46:49.896Z,9.93
2018-04-25T02:49:17.451Z,8.60
2018-04-25T02:51:44.989Z,6.47
2018-04-25T02:54:12.543Z,6.10
2018-04-25T02:56:40.068Z,9.83
2018-04-25T02:59:07.619Z,10.40
2018-04-25T03:01:35.157Z,11.10
2018-04-25T03:04:03.478Z,9.83
2018-04-25T03:06:30.997Z,8.20
2018-04-25T03:08:59.308Z,13.63
2018-04-25T03:11:26.828Z,11.70
2018-04-25T03:13:54.361Z,19.50
2018-04-25T03:16:21.911Z,14.07
2018-04-25T03:18:49.442Z,6.93
2018-04-25T03:21:16.985Z,5.93
2018-04-25T03:23:45.292Z,7.37
2018-04-25T03:26:12.842Z,8.20
2018-04-25T03:28:40.374Z,7.13
2018-04-25T03:31:08.712Z,11.13
2018-04-25T03:33:36.245Z,14.50
2018-04-25T03:36:03.810Z,9.10
2018-04-25T03:38:31.335Z,7.77
2018-04-25T03:40:59.650Z,12.00
2018-04-25T03:43:27.207Z,15.87
2018-04-25T03:45:54.761Z,9.07
2018-04-25T03:48:22.330Z,19.00
2018-04-25T03:50:49.856Z,17.37
2018-04-25T03:53:17.393Z,14.20
2018-04-25T03:55:44.917Z,13.53
2018-04-25T03:58:12.492Z,14.60
2018-04-25T04:00:40.956Z,12.53
2018-04-25T04:03:08.503Z,13.57
2018-04-25T04:05:36.027Z,14.63
2018-04-25T04:08:04.328Z,11.43
2018-04-25T04:10:31.898Z,18.93
2018-04-25T04:12:59.455Z,13.83
2018-04-25T04:15:27.019Z,15.97
2018-04-25T04:17:54.561Z,18.30
2018-04-25T04:20:25.733Z,15.03
2018-04-25T04:22:53.271Z,14.73
2018-04-25T04:25:21.686Z,17.63
2018-04-25T04:27:49.229Z,14.60
2018-04-25T04:30:16.812Z,18.83
2018-04-25T04:32:44.333Z,19.20
2018-04-25T04:35:12.474Z,16.70
2018-04-25T04:37:40.780Z,15.90
2018-04-25T04:40:08.336Z,11.80
2018-04-25T04:42:35.891Z,14.20
2018-04-25T04:45:03.431Z,17.83
2018-04-25T04:47:31.773Z,17.97
2018-04-25T04:49:59.301Z,14.77
2018-04-25T04:52:26.873Z,19.40
2018-04-25T04:54:54.404Z,17.23
2018-04-25T04:57:21.983Z,15.40
2018-04-25T04:59:49.537Z,20.80
2018-04-25T05:02:17.108Z,25.53
2018-04-25T05:04:44.671Z,24.37
2018-04-25T05:07:12.227Z,17.70
2018-04-25T05:09:39.841Z,20.30
2018-04-25T05:12:07.342Z,17.83
2018-04-25T05:14:34.912Z,22.57
2018-04-25T05:17:03.238Z,16.20
2018-04-25T05:19:31.573Z,20.70
2018-04-25T05:21:59.119Z,20.00
2018-04-25T05:24:26.743Z,18.77
2018-04-25T05:26:55.176Z,18.93
2018-04-25T05:29:22.721Z,18.77
2018-04-25T05:31:50.299Z,21.93
2018-04-25T05:34:17.854Z,18.50
2018-04-25T05:36:45.428Z,15.90
2018-04-25T05:39:12.971Z,16.13
2018-04-25T05:41:40.527Z,25.23
2018-04-25T05:44:08.065Z,24.63
2018-04-25T05:46:35.623Z,19.83
2018-04-25T05:49:03.144Z,26.83
2018-04-25T05:51:30.726Z,23.40
2018-04-25T05:53:59.013Z,20.13
2018-04-25T05:56:26.539Z,17.30
2018-04-25T05:58:54.128Z,20.60
2018-04-25T06:01:21.673Z,19.20
2018-04-25T06:03:50.140Z,17.80
2018-04-25T06:06:17.688Z,19.67
2018-04-25T06:08:45.241Z,23.53
2018-04-25T06:11:12.797Z,21.30
2018-04-25T06:13:40.354Z,20.73
2018-04-25T06:16:07.911Z,14.63
2018-04-25T06:18:35.479Z,15.87
2018-04-25T06:21:03.029Z,13.57
2018-04-25T06:23:30.561Z,17.43
2018-04-25T06:25:58.113Z,15.27
2018-04-25T06:28:25.658Z,17.13
2018-04-25T06:30:53.990Z,18.20
2018-04-25T06:33:21.534Z,23.23
2018-04-25T06:35:49.087Z,11.50
2018-04-25T06:38:16.634Z,11.17
2018-04-25T06:40:44.189Z,17.50
2018-04-25T06:43:11.721Z,8.15
2018-04-25T06:45:39.352Z,6.97
2018-04-25T06:48:06.887Z,6.30
2018-04-25T06:50:34.442Z,9.63
2018-04-25T06:53:02.012Z,11.23
2018-04-25T06:55:29.531Z,5.80
2018-04-25T06:57:57.849Z,14.73
2018-04-25T07:00:25.386Z,14.20
2018-04-25T07:02:52.953Z,7.57
2018-04-25T07:05:21.123Z,6.00
2018-04-25T07:07:48.678Z,16.43
2018-04-25T07:10:16.228Z,6.23
2018-04-25T07:12:44.567Z,8.90
2018-04-25T07:15:12.449Z,6.53
2018-04-25T07:17:39.983Z,6.50
2018-04-25T07:20:07.546Z,5.07
2018-04-25T07:22:35.104Z,9.10
2018-04-25T07:25:02.664Z,5.80
2018-04-25T07:27:30.202Z,5.43
2018-04-25T07:29:57.759Z,5.17
2018-04-25T07:32:25.307Z,6.17
2018-04-25T07:34:52.876Z,4.50
2018-04-25T07:37:20.419Z,9.23
2018-04-25T07:39:47.964Z,4.80
2018-04-25T07:42:16.292Z,5.20
2018-04-25T07:44:44.816Z,5.03
2018-04-25T07:47:12.367Z,6.77
2018-04-25T07:49:39.913Z,6.20
2018-04-25T07:52:08.378Z,4.73
2018-04-25T07:54:35.925Z,8.40
2018-04-25T07:57:03.480Z,27.53
2018-04-25T07:59:31.017Z,5.27
2018-04-25T08:01:58.578Z,6.30
2018-04-25T08:04:26.126Z,6.40
2018-04-25T08:06:55.222Z,4.80
2018-04-25T08:09:23.557Z,5.70
2018-04-25T08:11:51.111Z,8.07
2018-04-25T08:14:30.454Z,6.10
2018-04-25T08:20:21.359Z,9.27
2018-04-25T08:22:48.908Z,8.05
2018-04-25T08:25:16.444Z,9.40
2018-04-25T08:27:44.766Z,9.70
2018-04-25T08:30:12.313Z,12.73
2018-04-25T08:32:39.863Z,15.50
2018-04-25T08:35:07.432Z,13.70
2018-04-25T08:37:34.991Z,15.93
2018-04-25T08:40:02.565Z,16.77
2018-04-25T08:42:30.097Z,15.00
2018-04-25T08:44:57.803Z,19.00
2018-04-25T08:47:25.228Z,17.50
2018-04-25T08:49:52.782Z,17.13
2018-04-25T08:52:20.339Z,12.20
2018-04-25T08:54:47.883Z,15.27
2018-04-25T08:57:16.225Z,20.20
2018-04-25T08:59:43.771Z,15.03
2018-04-25T09:02:11.328Z,13.20
2018-04-25T09:04:38.873Z,15.10
2018-04-25T09:07:06.413Z,11.57
2018-04-25T09:09:33.959Z,15.13
2018-04-25T09:12:02.269Z,17.10
2018-04-25T09:14:29.819Z,18.17
2018-04-25T09:16:57.383Z,14.53
2018-04-25T09:19:24.933Z,17.80
2018-04-25T09:21:52.508Z,16.43
2018-04-25T09:24:20.045Z,12.80
2018-04-25T09:26:47.592Z,11.63
2018-04-25T09:29:15.887Z,11.43
2018-04-25T09:31:43.427Z,11.87
2018-04-25T09:34:11.754Z,12.67
2018-04-25T09:36:39.303Z,14.60
2018-04-25T09:39:06.880Z,10.43
2018-04-25T09:41:34.400Z,12.17
2018-04-25T09:44:02.119Z,13.73
2018-04-25T09:46:30.438Z,13.70
2018-04-25T09:48:57.998Z,19.13
2018-04-25T09:51:25.524Z,18.87
2018-04-25T09:53:53.077Z,13.70
2018-04-25T09:56:20.652Z,12.73
2018-04-25T09:58:48.966Z,13.97
2018-04-25T10:01:22.282Z,19.67
2018-04-25T10:03:49.833Z,14.67
2018-04-25T10:06:17.381Z,15.00
2018-04-25T10:08:44.916Z,16.83
2018-04-25T10:11:13.239Z,18.73
2018-04-25T10:13:40.763Z,21.57
2018-04-25T10:16:08.317Z,21.03
2018-04-25T10:18:36.617Z,16.63
2018-04-25T10:21:04.172Z,15.20
2018-04-25T10:23:31.734Z,27.23
2018-04-25T10:25:59.287Z,19.90
2018-04-25T10:28:26.850Z,14.43
2018-04-25T10:30:54.383Z,15.07
2018-04-25T10:33:22.692Z,28.40
2018-04-25T10:35:50.211Z,11.70
2018-04-25T10:38:18.531Z,15.63
2018-04-25T10:40:46.076Z,17.67
2018-04-25T10:43:13.630Z,13.07
2018-04-25T10:45:41.174Z,14.53
2018-04-25T10:48:09.491Z,17.20
2018-04-25T10:50:37.059Z,16.53
2018-04-25T10:53:04.697Z,8.98
2018-04-25T10:55:32.251Z,13.20
2018-04-25T10:57:59.777Z,11.30
2018-04-25T11:00:27.304Z,5.17
2018-04-25T11:02:54.825Z,5.93
2018-04-25T11:05:22.374Z,6.40
2018-04-25T11:07:50.687Z,5.53
2018-04-25T11:10:18.255Z,4.70
2018-04-25T11:12:45.805Z,5.50
2018-04-25T11:15:13.404Z,8.70
2018-04-25T11:17:40.958Z,16.37
2018-04-25T11:20:08.498Z,6.27
2018-04-25T11:22:36.052Z,5.90
2018-04-25T11:25:03.587Z,5.63
2018-04-25T11:27:31.149Z,6.70
2018-04-25T11:29:58.693Z,5.90
2018-04-25T11:32:27.039Z,5.67
2018-04-25T11:34:54.581Z,6.73
2018-04-25T11:37:22.139Z,5.43
2018-04-25T11:39:49.669Z,5.83
2018-04-25T11:42:17.285Z,5.40
2018-04-25T11:44:44.853Z,8.90
2018-04-25T11:47:12.659Z,4.87
2018-04-25T11:49:41.063Z,12.67
2018-04-25T11:52:08.635Z,9.83
2018-04-25T11:54:36.213Z,6.30
2018-04-25T11:57:03.785Z,6.87
2018-04-25T11:59:32.116Z,6.33
2018-04-25T12:01:59.775Z,4.93
2018-04-25T12:04:27.369Z,6.40
2018-04-25T12:06:54.973Z,9.00
2018-04-25T12:09:22.541Z,6.87
2018-04-25T12:11:50.106Z,6.97
2018-04-25T12:14:17.661Z,6.87
2018-04-25T12:16:45.233Z,7.90
2018-04-25T12:19:12.799Z,11.43
2018-04-25T12:21:40.351Z,11.57
2018-04-25T12:24:07.920Z,15.33
2018-04-25T12:26:35.496Z,8.43
2018-04-25T12:29:03.134Z,7.47
2018-04-25T12:31:30.684Z,6.70
2018-04-25T12:33:58.654Z,13.20
2018-04-25T12:36:27.206Z,6.63
2018-04-25T12:38:55.077Z,5.67
2018-04-25T12:41:22.635Z,6.67
2018-04-25T12:43:51.053Z,7.57
2018-04-25T12:46:18.631Z,8.30
2018-04-25T12:48:46.547Z,12.63
2018-04-25T12:51:14.725Z,6.27
2018-04-25T12:53:42.978Z,8.80
2018-04-25T12:56:11.226Z,7.40
2018-04-25T12:58:38.991Z,9.20
2018-04-25T13:01:06.556Z,10.20
2018-04-25T13:03:34.100Z,9.13
2018-04-25T13:06:01.670Z,21.60
2018-04-25T13:08:29.247Z,14.37
2018-04-25T13:10:56.809Z,6.13
2018-04-25T13:13:24.351Z,6.80
2018-04-25T13:15:52.255Z,44.03
2018-04-25T13:18:19.852Z,14.17
2018-04-25T13:20:47.426Z,6.73
2018-04-25T13:23:14.964Z,7.30
2018-04-25T13:25:42.803Z,9.75
2018-04-25T13:28:10.520Z,5.73
2018-04-25T13:30:38.074Z,6.43
2018-04-25T13:33:05.638Z,7.37
2018-04-25T13:35:33.199Z,6.40
2018-04-25T13:38:00.763Z,8.57
2018-04-25T13:40:28.634Z,9.53
2018-04-25T13:42:56.206Z,6.53
2018-04-25T13:45:24.366Z,10.80
2018-04-25T13:47:52.925Z,11.23
2018-04-25T13:50:20.814Z,8.53
2018-04-25T13:52:49.215Z,7.93
2018-04-25T13:55:16.789Z,5.87
2018-04-25T13:57:45.759Z,6.70
2018-04-25T14:00:14.871Z,9.93
2018-04-25T14:02:43.021Z,5.93
2018-04-25T14:05:11.162Z,6.30
2018-04-25T14:07:39.399Z,15.03
2018-04-25T14:10:07.155Z,11.20
2018-04-25T14:12:35.222Z,11.20
2018-04-25T14:15:03.128Z,14.37
2018-04-25T14:17:31.512Z,6.63
2018-04-25T14:19:59.401Z,10.23
2018-04-25T14:22:27.616Z,10.10
2018-04-25T14:24:56.031Z,8.77
2018-04-25T14:27:24.399Z,9.57
2018-04-25T14:29:52.711Z,8.73
2018-04-25T14:32:21.209Z,11.70
2018-04-25T14:34:50.344Z,9.17
2018-04-25T14:37:19.729Z,13.20
2018-04-25T14:39:47.973Z,9.80
2018-04-25T14:42:16.462Z,10.23
2018-04-25T14:44:44.583Z,7.73
2018-04-25T14:47:12.761Z,12.53
2018-04-25T14:49:40.748Z,9.00
2018-04-25T14:52:09.007Z,10.10
2018-04-25T14:54:37.052Z,10.27
2018-04-25T14:57:04.855Z,9.60
2018-04-25T14:59:33.749Z,7.50
2018-04-25T15:02:01.336Z,8.73
2018-04-25T15:04:28.946Z,9.23
2018-04-25T15:06:57.394Z,6.70
2018-04-25T15:09:25.109Z,6.70
2018-04-25T15:11:52.697Z,13.03
2018-04-25T15:14:20.464Z,7.67
2018-04-25T15:16:48.079Z,14.07
2018-04-25T15:19:16.089Z,6.07
2018-04-25T15:21:44.352Z,9.37
2018-04-25T15:24:11.944Z,6.13
2018-04-25T15:26:39.854Z,12.00
2018-04-25T15:29:09.065Z,4.07
2018-04-25T15:31:37.375Z,5.37
2018-04-25T15:34:06.216Z,4.70
2018-04-25T15:36:34.625Z,4.82
2018-04-25T15:39:02.689Z,5.90
2018-04-25T15:41:30.946Z,4.20
2018-04-25T15:43:59.156Z,4.07
2018-04-25T15:46:27.534Z,3.83
2018-04-25T15:48:55.937Z,4.00
2018-04-25T15:51:24.397Z,6.90
2018-04-25T15:53:53.315Z,5.30
2018-04-25T15:56:21.787Z,3.40
2018-04-25T15:58:51.022Z,5.72
2018-04-25T16:01:19.342Z,4.33
2018-04-25T16:03:47.727Z,3.97
2018-04-25T16:06:16.650Z,6.73
2018-04-25T16:08:45.580Z,4.10
2018-04-25T16:11:13.828Z,6.70
2018-04-25T16:13:42.342Z,5.10
2018-04-25T16:16:10.607Z,6.13
2018-04-25T16:18:39.611Z,9.23
2018-04-25T16:21:07.958Z,5.93
2018-04-25T16:23:36.328Z,4.70
2018-04-25T16:26:04.627Z,9.93
2018-04-25T16:28:32.929Z,4.80
2018-04-25T16:31:00.857Z,7.07
2018-04-25T16:33:28.889Z,5.07
2018-04-25T16:35:56.773Z,4.87
2018-04-25T16:38:25.321Z,22.93
2018-04-25T16:40:53.137Z,5.80
2018-04-25T16:43:21.307Z,5.10
2018-04-25T16:45:50.536Z,14.00
2018-04-25T16:48:18.959Z,4.50
2018-04-25T16:50:48.171Z,5.60
2018-04-25T16:53:17.416Z,7.30
2018-04-25T16:55:45.802Z,6.00
2018-04-25T16:58:14.013Z,8.73
2018-04-25T17:00:42.457Z,10.53
2018-04-25T17:03:10.716Z,6.57
2018-04-25T17:05:39.045Z,6.80
2018-04-25T17:08:07.195Z,7.13
2018-04-25T17:10:35.560Z,5.00
2018-04-25T17:13:04.109Z,6.68
2018-04-25T17:15:32.501Z,7.40
2018-04-25T17:18:00.955Z,6.60
2018-04-25T17:20:29.348Z,11.60
2018-04-25T17:22:58.591Z,8.00
2018-04-25T17:25:27.222Z,7.93
2018-04-25T17:27:56.242Z,14.83
2018-04-25T17:30:24.885Z,7.33
2018-04-25T17:32:53.216Z,8.50
2018-04-25T17:35:21.573Z,9.67
2018-04-25T17:37:50.016Z,8.13
2018-04-25T17:40:18.610Z,11.17
2018-04-25T17:42:47.835Z,6.43
2018-04-25T17:45:17.051Z,6.93
2018-04-25T17:47:45.556Z,8.10
2018-04-25T17:50:14.016Z,6.27
2018-04-25T17:52:42.449Z,6.23
2018-04-25T17:55:11.865Z,8.07
2018-04-25T17:57:41.114Z,6.80
2018-04-25T18:00:09.095Z,7.67
2018-04-25T18:02:37.468Z,9.90
2018-04-25T18:05:05.906Z,8.17
2018-04-25T18:07:34.378Z,9.30
2018-04-25T18:10:02.845Z,8.27
2018-04-25T18:12:31.304Z,7.83
2018-04-25T18:14:59.723Z,11.77
2018-04-25T18:17:28.243Z,8.63
2018-04-25T18:19:56.793Z,8.33
2018-04-25T18:22:25.425Z,8.80
2018-04-25T18:24:53.818Z,9.67
2018-04-25T18:27:22.971Z,14.40
2018-04-25T18:29:51.565Z,12.13
2018-04-25T18:32:19.928Z,10.07
2018-04-25T18:34:48.592Z,15.77
2018-04-25T18:37:17.173Z,12.70
2018-04-25T18:39:45.892Z,12.03
2018-04-25T18:42:14.482Z,11.43
2018-04-25T18:44:43.021Z,15.37
2018-04-25T18:47:11.720Z,14.60
2018-04-25T18:49:40.202Z,11.17
2018-04-25T18:52:09.393Z,12.37
2018-04-25T18:54:37.839Z,12.37
2018-04-25T18:57:06.295Z,11.73
2018-04-25T18:59:35.715Z,11.63
2018-04-25T19:02:04.301Z,14.80
2018-04-25T19:04:33.128Z,20.33
2018-04-25T19:07:01.748Z,18.37
2018-04-25T19:09:30.332Z,12.10
2018-04-25T19:11:58.860Z,11.50
2018-04-25T19:14:28.281Z,11.87
2018-04-25T19:16:57.533Z,11.97
2018-04-25T19:19:26.202Z,11.77
2018-04-25T19:21:54.756Z,12.53
2018-04-25T19:24:23.453Z,11.30
2018-04-25T19:26:51.939Z,11.13
2018-04-25T19:29:21.750Z,15.80
2018-04-25T19:31:50.269Z,11.63
2018-04-25T19:34:19.084Z,16.00
2018-04-25T19:36:47.631Z,16.20
2018-04-25T19:39:16.134Z,12.13
2018-04-25T19:41:45.881Z,11.80
2018-04-25T19:44:15.197Z,12.37
2018-04-25T19:46:43.821Z,14.50
2018-04-25T19:49:12.426Z,12.43
2018-04-25T19:51:41.756Z,13.40
2018-04-25T19:54:11.180Z,15.63
2018-04-25T19:56:39.767Z,16.40
2018-04-25T19:59:08.489Z,12.43
2018-04-25T20:01:37.837Z,15.10
2018-04-25T20:04:06.840Z,13.83
2018-04-25T20:06:35.434Z,12.57
2018-04-25T20:09:04.075Z,16.00
2018-04-25T20:11:32.649Z,16.37
2018-04-25T20:14:02.067Z,16.83
2018-04-25T20:16:31.510Z,15.67
2018-04-25T20:19:01.222Z,15.87
2018-04-25T20:21:29.679Z,13.87
2018-04-25T20:23:58.215Z,19.77
2018-04-25T20:26:26.570Z,19.07
2018-04-25T20:28:55.231Z,14.43
2018-04-25T20:31:23.477Z,16.47
2018-04-25T20:33:52.103Z,13.23
2018-04-25T20:36:20.479Z,16.00
2018-04-25T20:38:48.785Z,18.17
2018-04-25T20:41:17.228Z,22.57
2018-04-25T20:43:45.546Z,20.73
2018-04-25T20:46:14.110Z,18.73
2018-04-25T20:48:42.401Z,19.20
2018-04-25T20:51:10.555Z,14.73
2018-04-25T20:53:38.362Z,14.20
2018-04-25T20:56:06.038Z,16.07
2018-04-25T20:58:33.992Z,15.37
2018-04-25T21:01:01.868Z,21.50
2018-04-25T21:03:30.036Z,17.30
2018-04-25T21:05:57.682Z,19.17
2018-04-25T21:08:26.479Z,14.93
2018-04-25T21:10:54.307Z,18.23
2018-04-25T21:13:21.964Z,17.47
2018-04-25T21:15:49.647Z,14.57
2018-04-25T21:18:18.020Z,16.90
2018-04-25T21:20:45.575Z,20.50
2018-04-25T21:23:13.160Z,18.53
2018-04-25T21:25:40.758Z,19.27
2018-04-25T21:28:08.849Z,17.00
2018-04-25T21:30:36.993Z,16.40
2018-04-25T21:33:04.993Z,25.57
2018-04-25T21:35:33.275Z,22.93
2018-04-25T21:38:01.877Z,16.37
2018-04-25T21:40:29.659Z,22.70
2018-04-25T21:42:58.057Z,20.87
2018-04-25T21:45:26.382Z,18.70
2018-04-25T21:47:53.928Z,26.07
2018-04-25T21:50:21.515Z,24.93
2018-04-25T21:52:49.049Z,19.77
2018-04-25T21:55:16.607Z,20.85
2018-04-25T21:57:44.206Z,22.33
2018-04-25T22:00:11.838Z,22.43
2018-04-25T22:02:39.447Z,21.30
2018-04-25T22:05:07.793Z,20.13
2018-04-25T22:07:35.385Z,22.07
2018-04-25T22:10:02.942Z,21.30
2018-04-25T22:12:30.517Z,23.73
2018-04-25T22:14:58.850Z,22.00
2018-04-25T22:17:26.434Z,22.60
2018-04-25T22:19:53.994Z,21.23
2018-04-25T22:22:21.585Z,23.13
2018-04-25T22:24:50.575Z,22.20
2018-04-25T22:27:18.897Z,23.80
2018-04-25T22:29:46.479Z,23.37
2018-04-25T22:32:14.037Z,21.00
2018-04-25T22:34:41.620Z,19.57
2018-04-25T22:37:09.177Z,17.37
2018-04-25T22:39:36.748Z,21.00
2018-04-25T22:42:05.072Z,17.43
2018-04-25T22:44:32.649Z,18.37
2018-04-25T22:47:00.210Z,17.00
2018-04-25T22:49:27.793Z,15.27
2018-04-25T22:51:55.358Z,14.60
2018-04-25T22:54:23.684Z,21.90
2018-04-25T22:56:51.261Z,18.83
2018-04-25T22:59:19.741Z,15.00
2018-04-25T23:01:47.349Z,14.03
2018-04-25T23:04:15.674Z,19.77
2018-04-25T23:06:43.249Z,11.77
2018-04-25T23:09:10.808Z,19.35
2018-04-25T23:11:38.369Z,26.83
2018-04-25T23:14:05.906Z,14.37
2018-04-25T23:16:33.463Z,22.93
2018-04-25T23:19:01.021Z,14.53
2018-04-25T23:21:28.548Z,19.97
2018-04-25T23:23:56.877Z,15.77
2018-04-25T23:26:25.193Z,17.97
2018-04-25T23:28:53.504Z,25.73
2018-04-25T23:31:21.043Z,17.98
2018-04-25T23:33:49.356Z,18.60
2018-04-25T23:36:16.907Z,16.83
2018-04-25T23:38:44.461Z,14.63
2018-04-25T23:41:12.033Z,16.03
2018-04-25T23:43:39.591Z,13.90
2018-04-25T23:46:07.137Z,16.40
2018-04-25T23:48:34.703Z,20.20
2018-04-25T23:51:02.259Z,16.10
2018-04-25T23:53:31.049Z,15.37
2018-04-25T23:55:58.606Z,19.87
2018-04-25T23:58:26.150Z,19.10
